1861 NOT_NAMED (1861101S09084)


IBTrACS version v04r00. Visit IBTrACS website for data access.
Please direct all questions to the IBTrACS Q and A forum

Storm track - Intensity - Wind Radii - Intensity Data - Source Data - All data

Summary Information

Storm ID 1861101S09084
Start Apr 11 06Z
End Apr 19 06Z
ATCF IDs
Track status Best track data.

Storm track plot

Map of storm track

Intensity plots

No Intensity information for this storm


Radial wind information

No radial wind information for this storm


Position and Intensity Table

BASIN ISO_TIME_________ NATURE LAT LON
degrees north degrees east
SI 1861-04-11 06:00:00 NR -9.20 83.50
SI 09:00:00 NR -9.21 83.23
SI 12:00:00 NR -9.22 82.96
SI 15:00:00 NR -9.23 82.70
SI 18:00:00 NR -9.24 82.43
SI 21:00:00 NR -9.25 82.17
SI 1861-04-12 00:00:00 NR -9.26 81.91
SI 03:00:00 NR -9.28 81.65
SI 06:00:00 NR -9.30 81.40
SI 09:00:00 NR -9.32 81.15
SI 12:00:00 NR -9.35 80.90
SI 15:00:00 NR -9.38 80.66
SI 18:00:00 NR -9.42 80.41
SI 21:00:00 NR -9.46 80.17
SI 1861-04-13 00:00:00 NR -9.50 79.92
SI 03:00:00 NR -9.55 79.66
SI 06:00:00 NR -9.60 79.40
SI 09:00:00 NR -9.64 79.14
SI 12:00:00 NR -9.69 78.88
SI 15:00:00 NR -9.74 78.62
SI 18:00:00 NR -9.80 78.34
SI 21:00:00 NR -9.86 78.05
SI 1861-04-14 00:00:00 NR -9.93 77.75
SI 03:00:00 NR -10.01 77.43
SI 06:00:00 NR -10.10 77.10
SI 09:00:00 NR -10.19 76.75
SI 12:00:00 NR -10.29 76.38
SI 15:00:00 NR -10.39 76.00
SI 18:00:00 NR -10.51 75.60
SI 21:00:00 NR -10.64 75.19
SI 1861-04-15 00:00:00 NR -10.78 74.77
SI 03:00:00 NR -10.93 74.34
SI 06:00:00 NR -11.10 73.90
SI 09:00:00 NR -11.28 73.43
SI 12:00:00 NR -11.48 72.94
SI 15:00:00 NR -11.70 72.45
SI 18:00:00 NR -11.91 71.95
SI 21:00:00 NR -12.14 71.48
SI 1861-04-16 00:00:00 NR -12.36 71.02
SI 03:00:00 NR -12.58 70.59
SI 06:00:00 NR -12.80 70.20
SI 09:00:00 NR -12.99 69.87
SI 12:00:00 NR -13.17 69.58
SI 15:00:00 NR -13.35 69.32
SI 18:00:00 NR -13.53 69.09
SI 21:00:00 NR -13.72 68.88
SI 1861-04-17 00:00:00 NR -13.90 68.68
SI 03:00:00 NR -14.10 68.49
SI 06:00:00 NR -14.30 68.30
SI 09:00:00 NR -14.53 68.07
SI 12:00:00 NR -14.77 67.84
SI 15:00:00 NR -15.02 67.62
SI 18:00:00 NR -15.27 67.41
SI 21:00:00 NR -15.52 67.21
SI 1861-04-18 00:00:00 NR -15.76 67.02
SI 03:00:00 NR -15.99 66.85
SI 06:00:00 NR -16.20 66.70
SI 09:00:00 NR -16.39 66.57
SI 12:00:00 NR -16.57 66.45
SI 15:00:00 NR -16.73 66.35
SI 18:00:00 NR -16.88 66.27
SI 21:00:00 NR -17.02 66.19
SI 1861-04-19 00:00:00 NR -17.15 66.12
SI 03:00:00 NR -17.28 66.06
SI 06:00:00 NR -17.40 66.00

Source Information

Agency Information
USA
TOKYO
CMA
HKO
NEWDELHI
REUNION WMO-Best-Tracks.txt:Line=381:xxxx861055
BOM
NADI
WELLINGTON
DS824
TD9636
TD9635
NEUMANN
MLC

All available IBTrACS Data

SEASON BASIN SUBBASIN ISO_TIME_________ NATURE LAT LON WMO AGENCY DIST2LAND LANDFALL IFLAG USA SSHS REUNION LAT REUNION LON REUNION TYPE REUNION TNUM STORM SPEED STORM DIR
Year degrees north degrees east km km 1 degrees north degrees east 1 kts degrees
1861 SI MM 1861-04-11 06:00:00 NR -9.20 83.50 1722 1716 _____O________ -1 -9.20 83.50 99 9.90 5 268
1861 SI MM 09:00:00 NR -9.21 83.23 1716 1712 _____P________ -1 -9.21 83.23 99 5 268
1861 SI MM 12:00:00 NR -9.22 82.96 1712 1707 _____P________ -1 -9.22 82.96 99 5 268
1861 SI MM 15:00:00 NR -9.23 82.70 1707 1703 _____P________ -1 -9.23 82.70 99 5 268
1861 SI MM 18:00:00 NR -9.24 82.43 1703 1701 _____P________ -1 -9.24 82.43 99 5 268
1861 SI MM 21:00:00 NR -9.25 82.17 1701 1700 _____P________ -1 -9.25 82.17 99 5 267
1861 SI MM 1861-04-12 00:00:00 NR -9.26 81.91 1709 1707 _____P________ -1 -9.26 81.91 99 5 266
1861 SI MM 03:00:00 NR -9.28 81.65 1707 1705 _____P________ -1 -9.28 81.65 99 5 266
1861 SI MM 06:00:00 NR -9.30 81.40 1705 1704 _____O________ -1 -9.30 81.40 99 9.90 5 265
1861 SI MM 09:00:00 NR -9.32 81.15 1704 1703 _____P________ -1 -9.32 81.15 99 5 264
1861 SI MM 12:00:00 NR -9.35 80.90 1714 1714 _____P________ -1 -9.35 80.90 99 5 263
1861 SI MM 15:00:00 NR -9.38 80.66 1714 1714 _____P________ -1 -9.38 80.66 99 5 262
1861 SI MM 18:00:00 NR -9.42 80.41 1714 1714 _____P________ -1 -9.42 80.41 99 5 261
1861 SI MM 21:00:00 NR -9.46 80.17 1726 1726 _____P________ -1 -9.46 80.17 99 5 260
1861 SI MM 1861-04-13 00:00:00 NR -9.50 79.92 1727 1727 _____P________ -1 -9.50 79.92 99 5 260
1861 SI MM 03:00:00 NR -9.55 79.66 1728 1728 _____P________ -1 -9.55 79.66 99 5 259
1861 SI MM 06:00:00 NR -9.60 79.40 reunion 1741 1741 _____O________ -1 -9.60 79.40 99 9.90 5 260
1861 SI MM 09:00:00 NR -9.64 79.14 1744 1744 _____P________ -1 -9.64 79.14 99 5 260
1861 SI MM 12:00:00 NR -9.69 78.88 1758 1758 _____P________ -1 -9.69 78.88 99 5 259
1861 SI MM 15:00:00 NR -9.74 78.62 1762 1762 _____P________ -1 -9.74 78.62 99 5 259
1861 SI MM 18:00:00 NR -9.80 78.34 1777 1777 _____P________ -1 -9.80 78.34 99 6 258
1861 SI MM 21:00:00 NR -9.86 78.05 1791 1791 _____P________ -1 -9.86 78.05 99 6 257
1861 SI MM 1861-04-14 00:00:00 NR -9.93 77.75 1797 1797 _____P________ -1 -9.93 77.75 99 6 256
1861 SI MM 03:00:00 NR -10.01 77.43 1816 1816 _____P________ -1 -10.01 77.43 99 7 255
1861 SI MM 06:00:00 NR -10.10 77.10 reunion 1834 1834 _____O________ -1 -10.10 77.10 99 9.90 7 255
1861 SI MM 09:00:00 NR -10.19 76.75 1852 1852 _____P________ -1 -10.19 76.75 99 7 255
1861 SI MM 12:00:00 NR -10.29 76.38 1873 1873 _____P________ -1 -10.29 76.38 99 8 255
1861 SI MM 15:00:00 NR -10.39 76.00 1896 1896 _____P________ -1 -10.39 76.00 99 8 254
1861 SI MM 18:00:00 NR -10.51 75.60 1919 1919 _____P________ -1 -10.51 75.60 99 8 253
1861 SI MM 21:00:00 NR -10.64 75.19 1943 1943 _____P________ -1 -10.64 75.19 99 9 252
1861 SI MM 1861-04-15 00:00:00 NR -10.78 74.77 1978 1978 _____P________ -1 -10.78 74.77 99 9 251
1861 SI MM 03:00:00 NR -10.93 74.34 2006 2004 _____P________ -1 -10.93 74.34 99 9 249
1861 SI MM 06:00:00 NR -11.10 73.90 reunion 2004 1955 _____O________ -1 -11.10 73.90 99 9.90 10 249
1861 SI MM 09:00:00 NR -11.28 73.43 1946 1897 _____P________ -1 -11.28 73.43 99 10 248
1861 SI MM 12:00:00 NR -11.48 72.94 1888 1839 _____P________ -1 -11.48 72.94 99 10 247
1861 SI MM 15:00:00 NR -11.70 72.45 1830 1781 _____P________ -1 -11.70 72.45 99 11 246
1861 SI MM 18:00:00 NR -11.91 71.95 1781 1723 _____P________ -1 -11.91 71.95 99 10 245
1861 SI MM 21:00:00 NR -12.14 71.48 1723 1666 _____P________ -1 -12.14 71.48 99 10 244
1861 SI MM 1861-04-16 00:00:00 NR -12.36 71.02 1659 1611 _____P________ -1 -12.36 71.02 99 10 243
1861 SI MM 03:00:00 NR -12.58 70.59 1611 1562 _____P________ -1 -12.58 70.59 99 9 241
1861 SI MM 06:00:00 NR -12.80 70.20 reunion 1562 1523 _____O________ -1 -12.80 70.20 99 9.90 8 240
1861 SI MM 09:00:00 NR -12.99 69.87 1523 1483 _____P________ -1 -12.99 69.87 99 7 238
1861 SI MM 12:00:00 NR -13.17 69.58 1483 1450 _____P________ -1 -13.17 69.58 99 6 236
1861 SI MM 15:00:00 NR -13.35 69.32 1444 1420 _____P________ -1 -13.35 69.32 99 6 233
1861 SI MM 18:00:00 NR -13.53 69.09 1420 1389 _____P________ -1 -13.53 69.09 99 6 230
1861 SI MM 21:00:00 NR -13.72 68.88 1389 1359 _____P________ -1 -13.72 68.88 99 5 227
1861 SI MM 1861-04-17 00:00:00 NR -13.90 68.68 1359 1329 _____P________ -1 -13.90 68.68 99 5 225
1861 SI MM 03:00:00 NR -14.10 68.49 1329 1299 _____P________ -1 -14.10 68.49 99 5 223
1861 SI MM 06:00:00 NR -14.30 68.30 reunion 1299 1269 _____O________ -1 -14.30 68.30 99 9.90 6 223
1861 SI MM 09:00:00 NR -14.53 68.07 1269 1233 _____P________ -1 -14.53 68.07 99 7 223
1861 SI MM 12:00:00 NR -14.77 67.84 1224 1194 _____P________ -1 -14.77 67.84 99 7 221
1861 SI MM 15:00:00 NR -15.02 67.62 1194 1159 _____P________ -1 -15.02 67.62 99 7 220
1861 SI MM 18:00:00 NR -15.27 67.41 1159 1129 _____P________ -1 -15.27 67.41 99 6 219
1861 SI MM 21:00:00 NR -15.52 67.21 1129 1100 _____P________ -1 -15.52 67.21 99 6 217
1861 SI MM 1861-04-18 00:00:00 NR -15.76 67.02 1094 1074 _____P________ -1 -15.76 67.02 99 6 216
1861 SI MM 03:00:00 NR -15.99 66.85 1074 1045 _____P________ -1 -15.99 66.85 99 5 215
1861 SI MM 06:00:00 NR -16.20 66.70 reunion 1045 1025 _____O________ -1 -16.20 66.70 99 9.90 5 214
1861 SI MM 09:00:00 NR -16.39 66.57 1025 1006 _____P________ -1 -16.39 66.57 99 4 213
1861 SI MM 12:00:00 NR -16.57 66.45 1006 992 _____P________ -1 -16.57 66.45 99 4 211
1861 SI MM 15:00:00 NR -16.73 66.35 992 973 _____P________ -1 -16.73 66.35 99 4 209
1861 SI MM 18:00:00 NR -16.88 66.27 973 958 _____P________ -1 -16.88 66.27 99 3 208
1861 SI MM 21:00:00 NR -17.02 66.19 958 944 _____P________ -1 -17.02 66.19 99 3 207
1861 SI MM 1861-04-19 00:00:00 NR -17.15 66.12 944 935 _____P________ -1 -17.15 66.12 99 3 205
1861 SI MM 03:00:00 NR -17.28 66.06 935 921 _____P________ -1 -17.28 66.06 99 3 205
1861 SI MM 06:00:00 NR -17.40 66.00 reunion 921 _____O________ -1 -17.40 66.00 99 9.90 3 205